SALOWW 191720Z 32010KT CAVOK 28/10 Q1013 NOSIG
FTLOWW 191715Z 1918/2024 33010KT CAVOK TX29/2014Z TN18/2002Z BECMG 2016/2019 14003KT